Flight Track Log - Related Links

Times and Time Zones

All times are in EDT time to prevent confusion due to time zone crossing. See the BJS621 flight status page for this flight to view local times or setup timezone preferences in your user account.


Time Position Orientation Groundspeed Altitude Reporting Facility
EDT Latitude Longitude Course Direction KTS MPH feet Rate Location/Type
Sun 12:30:21 PM 34.5092 -82.7028 326° Northwest 255 293 5,900  Level Atlanta Center
Sun 12:31:21 PM 34.5681 -82.7497 327° Northwest 277 319 8,200 2,050 Climbing Atlanta Center
Sun 12:32:21 PM 34.6375 -82.8092 325° Northwest 295 339 10,000 900 Climbing Atlanta Center
Sun 12:33:21 PM 34.7050 -82.8764 321° Northwest 308 354 10,000 1,833 Level Atlanta Center
Sun 12:35:00 PM 35.0361 -83.1523 326° Northwest  Level FlightAware Approximate
Sun 12:35:21 PM 34.8628 -83.0236 323° Northwest 349 402 15,500  Level Atlanta Center
Sun 12:36:21 PM 34.9531 -83.0986 326° Northwest 364 419 19,200 3,050 Climbing Atlanta Center
Sun 12:37:21 PM 35.0433 -83.1761 325° Northwest 375 432 21,600 1,900 Climbing Atlanta Center
Sun 12:38:21 PM 35.1442 -83.2589 326° Northwest 397 457 23,000 1,600 Climbing Atlanta Center
Sun 12:39:21 PM 35.2406 -83.3369 327° Northwest 448 516 24,800 2,350 Climbing Atlanta Center
Sun 12:40:21 PM 35.3433 -83.4225 326° Northwest 453 521 27,700 2,400 Climbing Atlanta Center
Sun 12:41:21 PM 35.4458 -83.5086 326° Northwest 453 521 29,600 1,150 Climbing Atlanta Center
Sun 12:42:21 PM 35.5506 -83.5972 325° Northwest 453 521 30,000 200 Climbing Atlanta Center
Sun 12:43:21 PM 35.6572 -83.6886 325° Northwest 459 528 30,000 50 Level Atlanta Center
Sun 12:44:21 PM 35.7658 -83.7778 326° Northwest 466 536 30,100  Climbing Atlanta Center
Sun 12:45:21 PM 35.8706 -83.8669 325° Northwest 466 536 30,000 -50 Descending Atlanta Center
Sun 12:46:21 PM 35.9872 -83.9567 328° Northwest 479 551 30,000 800 Level Atlanta Center
Sun 12:47:21 PM 36.1000 -84.0414 329° Northwest 484 557 31,600 1,978 Climbing Atlanta Center
Sun 12:47:52 PM 36.1650 -84.0886 330° Northwest 478 550 33,000 2,194 Climbing Indianapolis Center
Sun 12:48:54 PM 36.2742 -84.1686 329° Northwest 466 536 35,000 1,887 Climbing Indianapolis Center
Sun 12:49:56 PM 36.3817 -84.2497 329° Northwest 458 527 36,900 1,403 Climbing Indianapolis Center
Sun 12:50:58 PM 36.4881 -84.3306 329° Northwest 452 520 37,900 537 Climbing Indianapolis Center
Sun 12:51:59 PM 36.6022 -84.4169 329° Northwest 459 528 38,000 49 Climbing Indianapolis Center
Sun 12:53:01 PM 36.7283 -84.5128 329° Northwest 459 528 38,000  Level Indianapolis Center
Sun 12:54:03 PM 36.8356 -84.5944 329° Northwest 454 522 38,000  Level Indianapolis Center
Sun 12:55:05 PM 36.9431 -84.6758 329° Northwest 452 520 38,000 484 Level Indianapolis Center
Sun 12:56:07 PM 37.0533 -84.7594 329° Northwest 451 519 39,000 968 Climbing Indianapolis Center
Sun 12:57:09 PM 37.1589 -84.8417 328° Northwest 445 512 40,000 484 Climbing Indianapolis Center
Sun 12:58:11 PM 37.2647 -84.9236 328° Northwest 445 512 40,000  Level Indianapolis Center
Sun 12:59:13 PM 37.3903 -85.0192 329° Northwest 448 516 40,000  Level Indianapolis Center
Sun 01:00:15 PM 37.4939 -85.1006 328° Northwest 440 506 40,000  Level Indianapolis Center
Sun 01:01:17 PM 37.5983 -85.1811 329° Northwest 439 505 40,000  Level Indianapolis Center
Sun 01:02:19 PM 37.7025 -85.2631 328° Northwest 440 506 40,000  Level Indianapolis Center
Sun 01:03:21 PM 37.8064 -85.3456 328° Northwest 440 506 40,000  Level Indianapolis Center
Sun 01:04:23 PM 37.9106 -85.4256 329° Northwest 448 516 40,000  Level Indianapolis Center
Sun 01:05:25 PM 38.0167 -85.5067 329° Northwest 445 512 40,000 -1,024 Level Indianapolis Center
Sun 01:06:26 PM 38.1511 -85.5864 335° Northwest 444 511 37,900 -2,244 Descending Indianapolis Center
Sun 01:07:28 PM 38.2664 -85.6522 336° Northwest 449 517 35,400 -2,274 Descending Indianapolis Center
Sun 01:08:30 PM 38.3756 -85.7181 335° Northwest 436 502 33,200 -1,645 Descending Indianapolis Center
Sun 01:09:32 PM 38.4856 -85.7847 335° Northwest 438 504 32,000 -581 Descending Indianapolis Center
Sun 01:10:34 PM 38.5975 -85.8525 335° Northwest 443 510 32,000  Level Indianapolis Center
Sun 01:11:36 PM 38.7117 -85.9203 335° Northwest 452 520 32,000 -629 Level Indianapolis Center
Sun 01:12:38 PM 38.8425 -86.0003 335° Northwest 435 501 30,700 -1,415 Descending Indianapolis Center
Sun 01:13:39 PM 38.9481 -86.0636 335° Northwest 430 495 29,100 -1,268 Descending Indianapolis Center
Sun 01:14:41 PM 39.0581 -86.1311 335° Northwest 436 502 28,100 -532 Descending Indianapolis Center
Sun 01:15:43 PM 39.1683 -86.1992 334° Northwest 440 506 28,000 -48 Descending Indianapolis Center
Sun 01:16:45 PM 39.2764 -86.2650 335° Northwest 433 498 28,000  Level Indianapolis Center
Sun 01:17:47 PM 39.3869 -86.3325 335° Northwest 435 501 28,000  Level Indianapolis Center
Sun 01:18:49 PM 39.5000 -86.4031 334° Northwest 446 513 28,000 -48 Level Indianapolis Center
Sun 01:19:51 PM 39.6369 -86.4883 334° Northwest 448 516 27,900 -537 Descending Indianapolis Center
Sun 01:20:52 PM 39.7494 -86.5589 334° Northwest 443 510 26,900 -927 Descending Indianapolis Center
Sun 01:21:54 PM 39.8603 -86.6281 334° Northwest 438 504 26,000 -435 Descending Indianapolis Center
Sun 01:22:56 PM 39.9706 -86.6969 334° Northwest 438 504 26,000  Level Indianapolis Center
Sun 01:23:58 PM 40.0822 -86.7678 334° Northwest 444 511 26,000  Level Indianapolis Center
Sun 01:24:35 PM 40.1492 -86.8103 334° Northwest 445 512 26,000 -909 Level Chicago Center
Sun 01:25:37 PM 40.2600 -86.8797 334° Northwest 443 510 24,500 -1,500 Descending Chicago Center
Sun 01:26:39 PM 40.3697 -86.9494 334° Northwest 439 505 22,900 -1,839 Descending Chicago Center
Sun 01:27:41 PM 40.5014 -87.0175 339° North 431 496 20,700 -1,984 Descending Chicago Center
Sun 01:28:43 PM 40.6150 -87.0419 351° North 417 480 18,800 -2,081 Descending Chicago Center
Sun 01:29:45 PM 40.7278 -87.0686 350° North 389 448 16,400 -2,274 Descending Chicago Center
Sun 01:30:47 PM 40.8297 -87.0956 349° North 379 436 14,100 -2,177 Descending Chicago Center
Sun 01:31:49 PM 40.9317 -87.1181 351° North 375 432 11,900 -1,935 Descending Chicago Center
Sun 01:32:51 PM 41.0253 -87.1428 349° North 353 406 10,100 -1,597 Descending Chicago Center
Sun 01:33:53 PM 41.1017 -87.1603 350° North 287 330 8,600 -1,742 Descending Chicago Center
Sun 01:34:55 PM 41.1886 -87.1833 349° North 272 313 6,500 -1,728 Descending Chicago Center
Sun 01:35:58 PM 41.2631 -87.2025 349° North 274 315 5,000 -1,200 Descending Chicago Center
Sun 01:37:00 PM 41.3356 -87.2200 350° North 271 312 4,000 -484 Descending Chicago Center
Sun 01:38:02 PM 41.4078 -87.2381 349° North 267 307 4,000  Level Chicago Center
Sun 01:39:04 PM 41.4806 -87.2589 348° North 269 310 4,000  Level Chicago Center
Sun 01:40:06 PM 41.5669 -87.2833 348° North 269 310 4,000 -97 Level Chicago Center
Sun 01:41:08 PM 41.6394 -87.3042 348° North 269 310 3,800 -484 Descending Chicago Center
Sun 01:42:10 PM 41.7064 -87.3217 349° North 262 302 3,000 -387 Descending Chicago Center
Sun 01:43:12 PM 41.7647 -87.3378 348° North 242 278 3,000  Level Chicago Center
Sun 01:44:14 PM 41.8339 -87.3575 348° North 224 258 3,000  Level Chicago Center
Sun 01:45:16 PM 41.8981 -87.3753 348° North 226 260 3,000  Level Chicago Center
Sun 01:46:18 PM 41.9739 -87.3978 348° North 252 290 3,000  Level Chicago Center
Sun 01:47:21 PM 42.0403 -87.4464 331° Northwest 274 315 3,000  Level Chicago Center
Sun 01:48:23 PM 42.0969 -87.5144 318° Northwest 276 318 3,000  Level Chicago Center
Sun 01:49:25 PM 42.1625 -87.5911 319° Northwest 270 311 3,000  Level Chicago Center
Sun 01:50:27 PM 42.2108 -87.6622 313° West 268 308 3,000 -242 Level Chicago Center
Sun 01:51:29 PM 42.2419 -87.7519 295° West 272 313 2,500 -484 Descending Chicago Center
Sun 01:52:31 PM 42.2253 -87.8425 256° West 262 302 2,000 -242 Descending Chicago Center
Sun 01:53:33 PM 42.1983 -87.9122 242° Southwest 239 275 2,000 -145 Level Chicago Center
Sun 01:54:35 PM 42.1533 -87.9356 201° Southwest 212 244 1,700 -290 Descending Chicago Center
Sun 01:56:00 PM 42.1143 -87.9015 169° South  Level Estimated

Login

Don't have an account? Register now (free) for customized features, flight alerts, and more!